createdAt,value
2019-05-05T00:01:59.247Z,4.10
2019-05-05T00:04:46.462Z,4.27
2019-05-05T00:07:20.533Z,4.13
2019-05-05T00:09:50.473Z,4.07
2019-05-05T00:12:42.321Z,4.30
2019-05-05T00:15:37.362Z,4.60
2019-05-05T00:18:07.415Z,4.37
2019-05-05T00:20:37.260Z,4.60
2019-05-05T00:23:07.247Z,4.87
2019-05-05T00:25:37.236Z,4.30
2019-05-05T00:28:07.070Z,4.17
2019-05-05T00:30:37.036Z,4.37
2019-05-05T00:33:07.191Z,4.70
2019-05-05T00:35:37.089Z,4.60
2019-05-05T00:38:07.102Z,4.47
2019-05-05T00:40:36.918Z,4.50
2019-05-05T00:43:06.735Z,4.20
2019-05-05T00:45:37.786Z,4.43
2019-05-05T00:48:15.314Z,4.40
2019-05-05T00:50:45.257Z,4.57
2019-05-05T00:53:15.091Z,4.40
2019-05-05T00:55:44.965Z,4.30
2019-05-05T00:58:14.816Z,4.27
2019-05-05T01:00:49.298Z,5.00
2019-05-05T01:03:21.474Z,4.40
2019-05-05T01:06:08.900Z,5.30
2019-05-05T01:08:38.864Z,4.90
2019-05-05T01:11:08.889Z,4.73
2019-05-05T01:13:38.748Z,5.00
2019-05-05T01:16:08.754Z,4.70
2019-05-05T01:18:38.558Z,5.00
2019-05-05T01:21:08.511Z,4.70
2019-05-05T01:23:38.316Z,4.97
2019-05-05T01:26:08.762Z,4.80
2019-05-05T01:28:38.655Z,4.40
2019-05-05T01:31:14.557Z,4.37
2019-05-05T01:34:04.815Z,5.10
2019-05-05T01:36:34.680Z,4.30
2019-05-05T01:39:25.231Z,3.23
2019-05-05T01:41:58.188Z,3.13
2019-05-05T01:44:28.047Z,2.60
2019-05-05T01:46:57.886Z,2.20
2019-05-05T01:49:27.668Z,2.00
2019-05-05T01:51:57.508Z,2.20
2019-05-05T01:54:27.382Z,2.10
2019-05-05T01:56:57.402Z,2.00
2019-05-05T01:59:27.584Z,2.40
2019-05-05T02:01:57.679Z,2.00
2019-05-05T02:04:27.554Z,1.70
2019-05-05T02:06:57.509Z,1.80
2019-05-05T02:09:27.356Z,1.90
2019-05-05T02:11:57.460Z,2.10
2019-05-05T02:14:27.327Z,1.80
2019-05-05T02:16:57.177Z,1.93
2019-05-05T02:19:27.236Z,2.13
2019-05-05T02:21:57.219Z,2.00
2019-05-05T02:24:27.155Z,1.53
2019-05-05T02:26:57.074Z,1.17
2019-05-05T02:29:44.715Z,0.70
2019-05-05T02:32:30.222Z,0.53
2019-05-05T02:35:00.898Z,0.50
2019-05-05T02:37:30.923Z,0.50
2019-05-05T02:40:06.358Z,0.50
2019-05-05T02:42:35.257Z,0.40
2019-05-05T02:45:07.148Z,0.40
2019-05-05T02:47:56.380Z,0.60
2019-05-05T02:50:46.680Z,0.40
2019-05-05T02:53:04.034Z,0.40
2019-05-05T02:55:35.567Z,0.40
2019-05-05T02:58:05.556Z,0.40
2019-05-05T03:00:54.216Z,0.40
2019-05-05T03:03:25.163Z,0.30
2019-05-05T03:05:55.701Z,0.50
2019-05-05T03:08:26.620Z,0.40
2019-05-05T03:10:58.752Z,0.30
2019-05-05T03:13:30.574Z,0.40
2019-05-05T03:16:20.337Z,0.50
2019-05-05T03:18:51.418Z,0.40
2019-05-05T03:21:24.152Z,0.30
2019-05-05T03:23:54.694Z,0.60
2019-05-05T03:26:25.346Z,0.30
2019-05-05T03:28:58.371Z,0.30
2019-05-05T03:31:28.458Z,0.30
2019-05-05T03:33:58.878Z,0.30
2019-05-05T03:36:29.180Z,0.30
2019-05-05T03:38:59.018Z,0.20
2019-05-05T03:41:43.961Z,0.40
2019-05-05T03:44:50.716Z,0.33
2019-05-05T03:47:21.109Z,0.30
2019-05-05T03:49:53.457Z,0.30
2019-05-05T03:52:24.431Z,0.30
2019-05-05T03:54:55.110Z,0.30
2019-05-05T03:57:25.309Z,0.30
2019-05-05T03:59:55.390Z,0.37
2019-05-05T04:02:38.256Z,0.30
2019-05-05T04:05:36.371Z,0.30
2019-05-05T04:08:06.271Z,0.27
2019-05-05T04:10:36.410Z,0.20
2019-05-05T04:13:06.258Z,0.23
2019-05-05T04:15:37.559Z,0.40
2019-05-05T04:18:28.404Z,0.20
2019-05-05T04:20:58.229Z,0.30
2019-05-05T04:23:28.013Z,0.20
2019-05-05T04:25:57.813Z,0.17
2019-05-05T04:28:27.681Z,0.23
2019-05-05T04:30:57.498Z,0.20
2019-05-05T04:33:27.341Z,0.30
2019-05-05T04:35:57.144Z,0.30
2019-05-05T04:38:27.022Z,0.10
2019-05-05T04:40:57.296Z,0.30
2019-05-05T04:43:27.207Z,0.30
2019-05-05T04:45:57.075Z,0.30
2019-05-05T04:48:34.564Z,0.20
2019-05-05T04:51:15.314Z,0.30
2019-05-05T04:54:03.777Z,0.30
2019-05-05T04:56:34.360Z,0.30
2019-05-05T04:59:04.495Z,0.30
2019-05-05T05:01:34.879Z,0.20
2019-05-05T05:04:26.665Z,0.20
2019-05-05T05:06:57.636Z,0.20
2019-05-05T05:09:27.445Z,0.20
2019-05-05T05:11:57.208Z,0.20
2019-05-05T05:14:27.077Z,0.40
2019-05-05T05:16:58.054Z,0.37
2019-05-05T05:19:27.861Z,0.20
2019-05-05T05:22:01.779Z,0.30
2019-05-05T05:24:29.219Z,0.30
2019-05-05T05:26:59.105Z,0.20
2019-05-05T05:29:29.015Z,0.30
2019-05-05T05:31:58.864Z,0.30
2019-05-05T05:34:28.852Z,0.20
2019-05-05T05:40:14.758Z,0.30
2019-05-05T05:42:44.617Z,0.20
2019-05-05T05:45:36.419Z,0.30
2019-05-05T05:48:16.762Z,0.20
2019-05-05T05:50:53.671Z,0.40
2019-05-05T05:53:23.996Z,0.10
2019-05-05T05:55:54.456Z,0.30
2019-05-05T05:58:24.595Z,0.20
2019-05-05T06:00:55.639Z,0.20
2019-05-05T06:03:25.467Z,0.20
2019-05-05T06:05:55.274Z,0.30
2019-05-05T06:08:25.142Z,0.20
2019-05-05T06:10:54.898Z,0.20
2019-05-05T06:13:24.760Z,0.27
2019-05-05T06:15:54.538Z,0.20
2019-05-05T06:18:24.479Z,0.40
2019-05-05T06:20:54.424Z,0.30
2019-05-05T06:23:24.260Z,0.30
2019-05-05T06:25:55.111Z,0.40
2019-05-05T06:28:25.218Z,0.40
2019-05-05T06:30:55.186Z,0.30
2019-05-05T06:33:25.024Z,0.40
2019-05-05T06:35:54.811Z,0.30
2019-05-05T06:38:24.604Z,0.37
2019-05-05T06:41:16.407Z,0.30
2019-05-05T06:44:16.868Z,0.40
2019-05-05T06:47:17.733Z,0.20
2019-05-05T06:49:47.585Z,0.30
2019-05-05T06:52:17.422Z,0.50
2019-05-05T06:54:47.297Z,0.30
2019-05-05T06:57:17.086Z,0.30
2019-05-05T06:59:46.982Z,0.30
2019-05-05T07:02:16.809Z,0.20
2019-05-05T07:04:47.093Z,0.40
2019-05-05T07:07:16.924Z,0.43
2019-05-05T07:09:46.774Z,0.40
2019-05-05T07:12:16.605Z,0.40
2019-05-05T07:14:46.376Z,0.70
2019-05-05T07:17:16.280Z,0.60
2019-05-05T07:19:46.198Z,0.57
2019-05-05T07:22:17.687Z,0.30
2019-05-05T07:24:47.814Z,0.40
2019-05-05T07:27:17.714Z,0.33
2019-05-05T07:29:47.430Z,0.60
2019-05-05T07:32:17.400Z,0.40
2019-05-05T07:35:17.857Z,0.40
2019-05-05T07:37:47.697Z,0.40
2019-05-05T07:40:17.640Z,0.40
2019-05-05T07:42:47.537Z,0.43
2019-05-05T07:45:22.163Z,0.80
2019-05-05T07:47:48.966Z,0.50
2019-05-05T07:50:28.622Z,0.60
2019-05-05T07:52:50.277Z,0.43
2019-05-05T07:55:20.125Z,0.60
2019-05-05T07:57:49.987Z,0.40
2019-05-05T08:00:20.313Z,0.50
2019-05-05T08:02:50.123Z,0.40
2019-05-05T08:05:19.965Z,0.50
2019-05-05T08:07:49.750Z,0.90
2019-05-05T08:10:19.682Z,0.60
2019-05-05T08:12:49.492Z,0.53
2019-05-05T08:15:21.054Z,0.87
2019-05-05T08:18:01.809Z,0.60
2019-05-05T08:20:34.354Z,0.50
2019-05-05T08:23:07.924Z,0.67
2019-05-05T08:25:45.413Z,0.50
2019-05-05T08:28:19.961Z,1.10
2019-05-05T08:30:57.395Z,0.40
2019-05-05T08:33:27.304Z,0.40
2019-05-05T08:35:57.085Z,0.50
2019-05-05T08:38:26.852Z,0.60
2019-05-05T08:40:56.705Z,0.90
2019-05-05T08:43:26.549Z,0.73
2019-05-05T08:45:56.441Z,0.73
2019-05-05T08:48:26.316Z,0.70
2019-05-05T08:50:56.223Z,0.60
2019-05-05T08:53:26.160Z,0.50
2019-05-05T08:55:55.987Z,0.60
2019-05-05T08:58:25.852Z,0.40
2019-05-05T09:00:55.759Z,0.40
2019-05-05T09:03:26.682Z,0.80
2019-05-05T09:05:56.478Z,0.93
2019-05-05T09:08:26.253Z,0.70
2019-05-05T09:10:56.112Z,0.67
2019-05-05T09:13:25.988Z,0.67
2019-05-05T09:15:55.933Z,0.60
2019-05-05T09:18:25.654Z,0.50
2019-05-05T09:20:55.482Z,0.40
2019-05-05T09:23:25.338Z,0.40
2019-05-05T09:26:13.773Z,0.47
2019-05-05T09:29:04.300Z,0.63
2019-05-05T09:31:34.411Z,0.60
2019-05-05T09:34:04.419Z,0.40
2019-05-05T09:36:34.846Z,0.40
2019-05-05T09:39:05.819Z,0.53
2019-05-05T09:41:35.631Z,0.57
2019-05-05T09:44:05.636Z,0.60
2019-05-05T09:46:35.387Z,0.50
2019-05-05T09:49:05.254Z,0.60
2019-05-05T09:51:35.167Z,0.60
2019-05-05T09:54:14.090Z,1.07
2019-05-05T09:56:36.866Z,1.40
2019-05-05T09:59:06.706Z,1.13
2019-05-05T10:01:36.598Z,0.73
2019-05-05T10:04:11.411Z,0.70
2019-05-05T10:06:41.363Z,0.90
2019-05-05T10:09:13.766Z,0.90
2019-05-05T10:11:45.021Z,1.20
2019-05-05T10:14:14.903Z,1.33
2019-05-05T10:16:44.722Z,0.73
2019-05-05T10:19:14.567Z,0.40
2019-05-05T10:21:44.621Z,0.40
2019-05-05T10:24:33.830Z,0.43
2019-05-05T10:27:04.901Z,0.40
2019-05-05T10:29:34.802Z,0.60
2019-05-05T10:32:04.927Z,0.50
2019-05-05T10:34:34.797Z,0.33
2019-05-05T10:37:04.607Z,0.57
2019-05-05T10:39:45.522Z,0.50
2019-05-05T10:42:15.408Z,0.63
2019-05-05T10:44:45.231Z,0.80
2019-05-05T10:47:15.039Z,0.60
2019-05-05T10:49:44.786Z,0.40
2019-05-05T10:52:14.564Z,0.60
2019-05-05T10:54:44.999Z,0.40
2019-05-05T10:57:18.308Z,0.40
2019-05-05T10:59:46.545Z,0.50
2019-05-05T11:02:16.382Z,0.43
2019-05-05T11:04:46.194Z,0.50
2019-05-05T11:07:16.016Z,0.53
2019-05-05T11:09:45.925Z,0.30
2019-05-05T11:12:15.742Z,0.90
2019-05-05T11:14:45.649Z,0.47
2019-05-05T11:17:15.518Z,0.43
2019-05-05T11:19:45.376Z,0.40
2019-05-05T11:22:15.135Z,1.07
2019-05-05T11:24:57.407Z,0.77
2019-05-05T11:27:16.550Z,0.50
2019-05-05T11:30:04.085Z,0.70
2019-05-05T11:32:51.361Z,0.50
2019-05-05T11:35:24.461Z,0.60
2019-05-05T11:37:54.373Z,0.80
2019-05-05T11:40:33.186Z,0.90
2019-05-05T11:43:03.759Z,0.50
2019-05-05T11:45:34.435Z,0.60
2019-05-05T11:48:04.575Z,0.67
2019-05-05T11:50:34.436Z,0.50
2019-05-05T11:53:04.197Z,0.57
2019-05-05T11:55:34.064Z,0.50
2019-05-05T11:58:04.114Z,0.70
2019-05-05T12:00:34.754Z,0.80
2019-05-05T12:03:05.018Z,1.00
2019-05-05T12:05:35.276Z,0.80
2019-05-05T12:08:05.083Z,0.40
2019-05-05T12:11:08.962Z,0.63
2019-05-05T12:13:38.746Z,0.80
2019-05-05T12:16:10.175Z,0.63
2019-05-05T12:18:40.019Z,0.60
2019-05-05T12:21:09.823Z,0.60
2019-05-05T12:23:39.655Z,1.10
2019-05-05T12:26:26.394Z,0.50
2019-05-05T12:28:58.895Z,0.90
2019-05-05T12:31:29.678Z,1.10
2019-05-05T12:33:59.557Z,0.60
2019-05-05T12:36:29.457Z,0.80
2019-05-05T12:38:59.670Z,0.70
2019-05-05T12:41:29.574Z,0.57
2019-05-05T12:43:59.867Z,0.60
2019-05-05T12:46:41.238Z,0.80
2019-05-05T12:49:13.733Z,0.60
2019-05-05T12:51:43.625Z,0.80
2019-05-05T12:54:14.662Z,0.63
2019-05-05T12:56:44.785Z,0.50
2019-05-05T12:59:21.134Z,0.60
2019-05-05T13:01:51.126Z,0.63
2019-05-05T13:04:21.043Z,0.60
2019-05-05T13:06:50.856Z,0.60
2019-05-05T13:09:20.989Z,0.53
2019-05-05T13:11:50.746Z,0.70
2019-05-05T13:14:20.571Z,0.70
2019-05-05T13:16:53.202Z,0.70
2019-05-05T13:19:28.002Z,0.70
2019-05-05T13:22:15.278Z,0.70
2019-05-05T13:24:56.635Z,0.63
2019-05-05T13:27:34.085Z,0.70
2019-05-05T13:30:04.323Z,0.70
2019-05-05T13:32:34.274Z,0.47
2019-05-05T13:35:04.215Z,0.53
2019-05-05T13:37:34.025Z,0.77
2019-05-05T13:40:04.514Z,0.70
2019-05-05T13:42:34.358Z,0.63
2019-05-05T13:45:29.386Z,0.60
2019-05-05T13:47:59.200Z,0.70
2019-05-05T13:50:40.524Z,0.73
2019-05-05T13:53:10.321Z,0.80
2019-05-05T13:55:41.727Z,1.10
2019-05-05T13:58:11.626Z,1.20
2019-05-05T14:00:41.558Z,0.87
2019-05-05T14:03:11.375Z,0.80
2019-05-05T14:05:41.242Z,1.00
2019-05-05T14:08:11.131Z,0.90
2019-05-05T14:10:40.998Z,0.83
2019-05-05T14:13:10.895Z,0.70
2019-05-05T14:15:40.767Z,0.87
2019-05-05T14:18:10.611Z,3.57
2019-05-05T14:20:40.424Z,1.10
2019-05-05T14:23:10.280Z,1.00
2019-05-05T14:25:40.259Z,1.10
2019-05-05T14:28:10.028Z,1.20
2019-05-05T14:30:46.536Z,1.03
2019-05-05T14:33:27.859Z,1.47
2019-05-05T14:36:07.335Z,0.83
2019-05-05T14:38:39.683Z,0.97
2019-05-05T14:41:09.641Z,0.40
2019-05-05T14:43:39.518Z,0.50
2019-05-05T14:46:09.337Z,1.40
2019-05-05T14:48:39.156Z,2.43
2019-05-05T14:51:08.997Z,2.77
2019-05-05T14:53:38.861Z,2.30
2019-05-05T14:56:08.666Z,1.97
2019-05-05T14:58:38.493Z,2.47
2019-05-05T15:01:08.386Z,2.20
2019-05-05T15:03:38.229Z,1.40
2019-05-05T15:06:45.120Z,2.17
2019-05-05T15:09:24.695Z,0.90
2019-05-05T15:12:17.602Z,0.60
2019-05-05T15:14:47.418Z,0.63
2019-05-05T15:17:17.252Z,1.00
2019-05-05T15:19:47.159Z,0.80
2019-05-05T15:22:17.053Z,1.00
2019-05-05T15:24:47.071Z,1.00
2019-05-05T15:27:16.875Z,0.80
2019-05-05T15:29:46.703Z,1.13
2019-05-05T15:32:16.543Z,0.70
2019-05-05T15:34:46.363Z,0.70
2019-05-05T15:37:16.237Z,0.80
2019-05-05T15:39:46.160Z,0.97
2019-05-05T15:42:15.959Z,0.80
2019-05-05T15:44:45.777Z,0.70
2019-05-05T15:47:16.207Z,0.77
2019-05-05T15:49:46.262Z,0.80
2019-05-05T15:52:16.133Z,0.90
2019-05-05T15:54:46.445Z,0.90
2019-05-05T15:57:18.100Z,0.70
2019-05-05T15:59:48.035Z,0.80
2019-05-05T16:02:17.909Z,0.90
2019-05-05T16:04:47.708Z,0.90
2019-05-05T16:07:17.584Z,1.07
2019-05-05T16:09:47.395Z,1.10
2019-05-05T16:12:17.271Z,1.10
2019-05-05T16:14:58.203Z,1.10
2019-05-05T16:17:40.506Z,1.00
2019-05-05T16:20:17.585Z,1.20
2019-05-05T16:23:15.220Z,1.23
2019-05-05T16:25:46.694Z,1.03
2019-05-05T16:28:16.758Z,1.00
2019-05-05T16:30:46.561Z,1.00
2019-05-05T16:33:16.424Z,1.20
2019-05-05T16:35:46.274Z,1.20
2019-05-05T16:38:16.084Z,1.03
2019-05-05T16:40:46.239Z,1.30
2019-05-05T16:43:16.691Z,1.17
2019-05-05T16:45:46.769Z,1.50
2019-05-05T16:48:16.576Z,2.07
2019-05-05T16:50:46.457Z,1.90
2019-05-05T16:53:34.508Z,1.90
2019-05-05T16:56:05.065Z,1.90
2019-05-05T16:58:34.919Z,2.50
2019-05-05T17:01:05.951Z,2.53
2019-05-05T17:03:35.875Z,3.30
2019-05-05T17:06:05.775Z,3.27
2019-05-05T17:08:35.613Z,2.10
2019-05-05T17:11:05.582Z,2.40
2019-05-05T17:13:40.637Z,2.07
2019-05-05T17:16:34.976Z,1.80
2019-05-05T17:19:10.762Z,1.17
2019-05-05T17:22:00.502Z,1.20
2019-05-05T17:24:30.266Z,1.20
2019-05-05T17:27:00.129Z,1.03
2019-05-05T17:29:30.009Z,1.10
2019-05-05T17:31:59.830Z,0.87
2019-05-05T17:34:29.641Z,0.97
2019-05-05T17:36:59.469Z,0.93
2019-05-05T17:39:31.363Z,0.80
2019-05-05T17:42:20.067Z,1.70
2019-05-05T17:45:14.095Z,1.00
2019-05-05T17:47:53.783Z,1.30
2019-05-05T17:50:40.767Z,1.20
2019-05-05T17:53:20.204Z,0.80
2019-05-05T17:55:50.457Z,2.10
2019-05-05T17:58:20.270Z,3.23
2019-05-05T18:00:54.878Z,13.57
2019-05-05T18:03:24.731Z,20.90
2019-05-05T18:06:14.355Z,9.50
2019-05-05T18:09:05.907Z,1.53
2019-05-05T18:11:53.556Z,6.40
2019-05-05T18:14:25.473Z,8.73
2019-05-05T18:16:55.349Z,2.33
2019-05-05T18:19:25.163Z,6.20
2019-05-05T18:21:54.998Z,8.03
2019-05-05T18:24:24.868Z,5.13
2019-05-05T18:26:54.740Z,4.47
2019-05-05T18:29:24.727Z,5.23
2019-05-05T18:31:54.627Z,3.23
2019-05-05T18:34:24.432Z,4.23
2019-05-05T18:36:54.568Z,3.53
2019-05-05T18:39:24.787Z,4.70
2019-05-05T18:42:01.271Z,3.20
2019-05-05T18:44:35.055Z,5.77
2019-05-05T18:47:18.541Z,3.70
2019-05-05T18:49:47.528Z,2.87
2019-05-05T18:52:17.390Z,4.37
2019-05-05T18:54:47.320Z,2.43
2019-05-05T18:57:17.470Z,1.20
2019-05-05T18:59:47.689Z,1.90
2019-05-05T19:02:29.695Z,2.20
2019-05-05T19:05:27.685Z,1.40
2019-05-05T19:08:19.287Z,1.60
2019-05-05T19:10:49.355Z,1.40
2019-05-05T19:13:19.125Z,1.30
2019-05-05T19:15:49.090Z,3.63
2019-05-05T19:18:19.102Z,1.30
2019-05-05T19:20:54.768Z,1.10
2019-05-05T19:23:24.783Z,1.00
2019-05-05T19:25:56.055Z,0.80
2019-05-05T19:28:26.330Z,0.83
2019-05-05T19:30:56.289Z,3.33
2019-05-05T19:33:26.099Z,3.10
2019-05-05T19:35:56.117Z,3.00
2019-05-05T19:38:25.986Z,2.23
2019-05-05T19:40:56.391Z,1.90
2019-05-05T19:43:26.775Z,2.17
2019-05-05T19:45:56.615Z,0.90
2019-05-05T19:48:26.519Z,0.90
2019-05-05T19:51:02.225Z,0.70
2019-05-05T19:53:35.268Z,1.90
2019-05-05T19:56:04.099Z,2.37
2019-05-05T19:58:36.357Z,2.00
2019-05-05T20:01:05.709Z,1.10
2019-05-05T20:03:35.880Z,0.80
2019-05-05T20:06:06.051Z,1.70
2019-05-05T20:08:40.963Z,1.70
2019-05-05T20:11:07.634Z,1.40
2019-05-05T20:13:37.611Z,1.80
2019-05-05T20:16:29.209Z,1.30
2019-05-05T20:18:59.525Z,1.00
2019-05-05T20:21:29.323Z,1.10
2019-05-05T20:23:59.151Z,1.00
2019-05-05T20:26:28.939Z,1.60
2019-05-05T20:29:10.440Z,0.80
2019-05-05T20:31:30.236Z,0.80
2019-05-05T20:34:21.713Z,0.90
2019-05-05T20:37:08.763Z,0.80
2019-05-05T20:39:39.063Z,1.00
2019-05-05T20:42:09.410Z,0.80
2019-05-05T20:44:39.208Z,0.80
2019-05-05T20:47:09.030Z,0.97
2019-05-05T20:49:38.935Z,1.00
2019-05-05T20:52:08.810Z,0.80
2019-05-05T20:54:38.630Z,0.90
2019-05-05T20:57:08.427Z,1.10
2019-05-05T20:59:38.284Z,0.83
2019-05-05T21:02:08.191Z,0.80
2019-05-05T21:04:38.057Z,0.90
2019-05-05T21:07:07.878Z,0.70
2019-05-05T21:09:37.721Z,0.70
2019-05-05T21:12:07.567Z,0.70
2019-05-05T21:14:38.187Z,0.77
2019-05-05T21:17:08.144Z,0.60
2019-05-05T21:19:37.934Z,0.70
2019-05-05T21:22:29.896Z,0.70
2019-05-05T21:24:59.831Z,0.60
2019-05-05T21:27:29.603Z,0.73
2019-05-05T21:29:59.449Z,0.70
2019-05-05T21:32:29.335Z,0.70
2019-05-05T21:34:59.146Z,0.87
2019-05-05T21:37:28.945Z,0.90
2019-05-05T21:39:58.931Z,0.70
2019-05-05T21:42:28.759Z,0.70
2019-05-05T21:44:58.618Z,1.00
2019-05-05T21:47:28.486Z,0.80
2019-05-05T21:49:58.262Z,1.07
2019-05-05T21:52:34.624Z,1.30
2019-05-05T21:55:19.746Z,1.10
2019-05-05T21:58:07.025Z,1.20
2019-05-05T22:00:54.823Z,1.67
2019-05-05T22:03:34.730Z,1.70
2019-05-05T22:06:04.885Z,1.90
2019-05-05T22:08:35.406Z,1.70
2019-05-05T22:11:05.869Z,1.50
2019-05-05T22:13:36.601Z,1.40
2019-05-05T22:16:06.587Z,1.20
2019-05-05T22:18:36.481Z,1.10
2019-05-05T22:21:35.916Z,1.40
2019-05-05T22:24:21.463Z,1.30
2019-05-05T22:26:54.128Z,1.40
2019-05-05T22:29:24.855Z,1.20
2019-05-05T22:31:54.944Z,1.13
2019-05-05T22:34:24.752Z,0.90
2019-05-05T22:36:54.601Z,1.10
2019-05-05T22:39:24.534Z,0.90
2019-05-05T22:41:54.508Z,1.20
2019-05-05T22:44:24.482Z,1.20
2019-05-05T22:46:54.391Z,1.00
2019-05-05T22:49:24.320Z,1.10
2019-05-05T22:51:54.267Z,1.30
2019-05-05T22:54:24.217Z,1.40
2019-05-05T22:56:54.060Z,1.40
2019-05-05T22:59:26.119Z,1.10
2019-05-05T23:01:55.525Z,1.10
2019-05-05T23:04:43.880Z,0.90
2019-05-05T23:07:26.682Z,1.57
2019-05-05T23:09:56.553Z,1.20
2019-05-05T23:12:26.366Z,1.30
2019-05-05T23:14:56.155Z,1.47
2019-05-05T23:18:03.836Z,1.37
2019-05-05T23:20:58.706Z,1.10
2019-05-05T23:23:46.036Z,1.10
2019-05-05T23:26:17.347Z,1.40
2019-05-05T23:28:47.214Z,1.17
2019-05-05T23:31:16.989Z,1.13
2019-05-05T23:33:46.819Z,1.10
2019-05-05T23:36:16.675Z,1.23
2019-05-05T23:38:46.505Z,1.10
2019-05-05T23:41:16.294Z,1.23
2019-05-05T23:43:46.142Z,1.27
2019-05-05T23:46:15.978Z,1.27
2019-05-05T23:48:45.872Z,1.37
2019-05-05T23:51:15.654Z,1.50
2019-05-05T23:53:45.542Z,1.30
2019-05-05T23:56:15.402Z,1.47
2019-05-05T23:58:45.258Z,1.43
